createdAt,value
2022-10-02T00:02:37.450Z,13.15
2022-10-02T00:05:16.262Z,17.05
2022-10-02T00:07:58.420Z,12.18
2022-10-02T00:10:41.120Z,11.27
2022-10-02T00:13:28.801Z,12.75
2022-10-02T00:15:56.042Z,17.25
2022-10-02T00:18:25.595Z,13.00
2022-10-02T00:21:05.315Z,12.88
2022-10-02T00:23:50.075Z,18.27
2022-10-02T00:26:31.456Z,10.65
2022-10-02T00:29:04.108Z,19.60
2022-10-02T00:31:57.534Z,13.38
2022-10-02T00:35:00.611Z,14.75
2022-10-02T00:38:09.473Z,16.13
2022-10-02T00:41:09.248Z,11.73
2022-10-02T00:43:59.099Z,16.00
2022-10-02T00:46:47.549Z,11.93
2022-10-02T00:49:19.812Z,14.50
2022-10-02T00:52:09.452Z,11.38
2022-10-02T00:55:09.985Z,13.77
2022-10-02T00:57:58.476Z,17.42
2022-10-02T01:00:25.214Z,17.48
2022-10-02T01:03:16.500Z,11.88
2022-10-02T01:05:43.110Z,16.63
2022-10-02T01:08:09.808Z,15.38
2022-10-02T01:10:38.094Z,15.88
2022-10-02T01:13:06.506Z,16.73
2022-10-02T01:15:36.901Z,15.87
2022-10-02T01:18:04.226Z,17.55
2022-10-02T01:20:37.652Z,18.38
2022-10-02T01:23:19.273Z,15.68
2022-10-02T01:25:46.137Z,18.70
2022-10-02T01:28:12.927Z,13.05
2022-10-02T01:30:44.149Z,10.73
2022-10-02T01:33:13.096Z,15.00
2022-10-02T01:35:40.325Z,14.75
2022-10-02T01:38:12.280Z,12.60
2022-10-02T01:40:40.408Z,22.48
2022-10-02T01:43:38.686Z,17.45
2022-10-02T01:46:21.577Z,17.37
2022-10-02T01:48:59.183Z,20.90
2022-10-02T01:51:25.631Z,13.10
2022-10-02T01:54:09.209Z,19.08
2022-10-02T01:56:55.342Z,17.52
2022-10-02T01:59:43.713Z,22.02
2022-10-02T02:02:29.616Z,22.50
2022-10-02T02:05:20.400Z,13.82
2022-10-02T02:07:52.969Z,13.52
2022-10-02T02:10:23.918Z,21.83
2022-10-02T02:13:03.394Z,15.25
2022-10-02T02:15:37.059Z,14.18
2022-10-02T02:18:16.032Z,11.48
2022-10-02T02:20:47.143Z,18.42
2022-10-02T02:23:20.094Z,21.33
2022-10-02T02:25:51.974Z,26.73
2022-10-02T02:28:21.332Z,14.88
2022-10-02T02:30:50.948Z,24.55
2022-10-02T02:33:23.952Z,20.40
2022-10-02T02:36:00.911Z,18.30
2022-10-02T02:38:38.910Z,19.70
2022-10-02T02:41:19.905Z,16.85
2022-10-02T02:43:56.609Z,20.45
2022-10-02T02:46:59.350Z,17.95
2022-10-02T02:49:29.970Z,16.52
2022-10-02T02:51:59.513Z,19.48
2022-10-02T02:54:44.290Z,18.85
2022-10-02T02:57:13.102Z,12.43
2022-10-02T02:59:44.164Z,18.52
2022-10-02T03:02:10.757Z,13.73
2022-10-02T03:04:37.296Z,21.23
2022-10-02T03:07:05.216Z,9.27
2022-10-02T03:09:33.352Z,15.63
2022-10-02T03:12:22.248Z,17.67
2022-10-02T03:15:05.748Z,12.85
2022-10-02T03:17:57.993Z,13.07
2022-10-02T03:20:45.133Z,12.45
2022-10-02T03:23:19.400Z,23.95
2022-10-02T03:25:53.019Z,15.10
2022-10-02T03:28:54.851Z,15.05
2022-10-02T03:31:23.540Z,14.63
2022-10-02T03:33:53.504Z,10.45
2022-10-02T03:36:24.360Z,16.85
2022-10-02T03:39:19.973Z,16.25
2022-10-02T03:41:40.737Z,9.30
2022-10-02T03:44:07.281Z,20.70
2022-10-02T03:46:34.163Z,20.15
2022-10-02T03:49:01.047Z,13.10
2022-10-02T03:51:27.633Z,16.58
2022-10-02T03:53:54.284Z,11.20
2022-10-02T03:56:40.179Z,15.07
2022-10-02T03:59:14.662Z,18.92
2022-10-02T04:01:49.297Z,19.48
2022-10-02T04:04:23.132Z,14.18
2022-10-02T04:07:02.494Z,22.90
2022-10-02T04:09:42.327Z,17.10
2022-10-02T04:12:21.321Z,14.85
2022-10-02T04:15:20.993Z,19.25
2022-10-02T04:18:00.053Z,16.88
2022-10-02T04:20:51.709Z,16.40
2022-10-02T04:23:23.668Z,16.15
2022-10-02T04:25:57.277Z,14.77
2022-10-02T04:28:30.771Z,15.35
2022-10-02T04:30:57.431Z,21.92
2022-10-02T04:33:25.444Z,13.13
2022-10-02T04:36:17.560Z,18.17
2022-10-02T04:39:07.371Z,18.48
2022-10-02T04:42:04.745Z,16.73
2022-10-02T04:44:43.347Z,12.35
2022-10-02T04:47:32.261Z,13.80
2022-10-02T04:50:38.488Z,14.55
2022-10-02T04:53:21.097Z,15.75
2022-10-02T04:55:57.440Z,12.52
2022-10-02T04:58:54.157Z,14.73
2022-10-02T05:01:42.354Z,15.00
2022-10-02T05:04:35.681Z,13.38
2022-10-02T05:07:24.150Z,14.43
2022-10-02T05:10:14.137Z,16.00
2022-10-02T05:12:52.788Z,20.65
2022-10-02T05:15:44.267Z,20.35
2022-10-02T05:18:37.554Z,20.63
2022-10-02T05:21:09.780Z,15.60
2022-10-02T05:23:43.602Z,18.40
2022-10-02T05:26:43.544Z,16.38
2022-10-02T05:29:27.631Z,17.98
2022-10-02T05:32:06.350Z,18.15
2022-10-02T05:34:40.320Z,13.43
2022-10-02T05:37:33.580Z,18.10
2022-10-02T05:40:19.057Z,20.20
2022-10-02T05:43:08.300Z,17.08
2022-10-02T05:48:21.264Z,26.27
2022-10-02T05:50:52.940Z,18.52
2022-10-02T05:53:33.350Z,17.75
2022-10-02T05:56:14.757Z,21.00
2022-10-02T05:59:19.756Z,22.02
2022-10-02T06:01:48.606Z,15.68
2022-10-02T06:04:18.373Z,18.60
2022-10-02T06:06:51.367Z,17.33
2022-10-02T06:09:45.214Z,16.55
2022-10-02T06:12:19.394Z,18.90
2022-10-02T06:14:57.736Z,14.52
2022-10-02T06:17:28.739Z,20.60
2022-10-02T06:20:03.787Z,14.85
2022-10-02T06:22:39.965Z,22.90
2022-10-02T06:25:16.873Z,18.88
2022-10-02T06:28:01.438Z,23.55
2022-10-02T06:30:31.159Z,22.83
2022-10-02T06:33:09.472Z,21.92
2022-10-02T06:35:57.829Z,18.20
2022-10-02T06:38:46.735Z,25.47
2022-10-02T06:41:28.294Z,16.23
2022-10-02T06:44:18.885Z,36.05
2022-10-02T06:47:15.352Z,20.85
2022-10-02T06:50:15.727Z,24.02
2022-10-02T06:53:18.301Z,19.20
2022-10-02T06:56:11.140Z,19.52
2022-10-02T06:59:07.939Z,25.73
2022-10-02T07:01:57.635Z,18.98
2022-10-02T07:04:48.063Z,27.88
2022-10-02T07:07:28.715Z,25.48
2022-10-02T07:10:04.215Z,17.50
2022-10-02T07:12:47.539Z,21.30
2022-10-02T07:15:26.136Z,16.85
2022-10-02T07:18:11.646Z,19.55
2022-10-02T07:21:01.005Z,19.23
2022-10-02T07:23:33.582Z,21.85
2022-10-02T07:26:23.900Z,15.38
2022-10-02T07:29:14.688Z,19.85
2022-10-02T07:32:11.993Z,15.90
2022-10-02T07:35:17.301Z,19.83
2022-10-02T07:38:02.356Z,16.92
2022-10-02T07:40:55.979Z,13.23
2022-10-02T07:44:00.546Z,15.38
2022-10-02T07:46:58.669Z,17.13
2022-10-02T07:49:50.636Z,15.65
2022-10-02T07:52:59.940Z,14.05
2022-10-02T07:55:27.052Z,15.18
2022-10-02T07:58:06.200Z,21.88
2022-10-02T08:00:39.444Z,19.15
2022-10-02T08:03:22.568Z,24.42
2022-10-02T08:05:52.712Z,14.90
2022-10-02T08:08:49.237Z,16.80
2022-10-02T08:11:33.732Z,11.05
2022-10-02T08:14:18.153Z,13.18
2022-10-02T08:16:57.104Z,16.38
2022-10-02T08:19:35.167Z,11.45
2022-10-02T08:22:17.680Z,9.88
2022-10-02T08:24:51.588Z,15.60
2022-10-02T08:27:41.995Z,11.30
2022-10-02T08:30:13.198Z,13.85
2022-10-02T08:32:39.652Z,7.95
2022-10-02T08:35:12.986Z,12.60
2022-10-02T08:38:25.147Z,17.65
2022-10-02T08:41:20.818Z,10.48
2022-10-02T08:44:02.819Z,15.10
2022-10-02T08:47:05.311Z,8.52
2022-10-02T08:49:56.754Z,7.82
2022-10-02T08:52:53.650Z,36.65
2022-10-02T08:56:03.288Z,12.93
2022-10-02T08:59:04.001Z,14.63
2022-10-02T09:01:50.534Z,17.83
2022-10-02T09:04:23.288Z,10.63
2022-10-02T09:07:00.212Z,11.13
2022-10-02T09:10:00.158Z,8.57
2022-10-02T09:12:59.557Z,10.05
2022-10-02T09:15:26.105Z,11.05
2022-10-02T09:18:34.233Z,7.65
2022-10-02T09:21:17.684Z,7.68
2022-10-02T09:24:19.988Z,9.35
2022-10-02T09:27:24.193Z,11.27
2022-10-02T09:30:13.352Z,5.43
2022-10-02T09:35:45.104Z,6.97
2022-10-02T09:38:39.418Z,5.07
2022-10-02T09:41:35.100Z,6.60
2022-10-02T09:44:44.738Z,10.02
2022-10-02T09:47:41.683Z,6.15
2022-10-02T09:50:36.593Z,5.57
2022-10-02T09:53:20.711Z,6.35
2022-10-02T09:56:05.904Z,4.80
2022-10-02T09:58:56.436Z,5.60
2022-10-02T10:01:49.039Z,7.57
2022-10-02T10:05:04.967Z,6.88
2022-10-02T10:08:14.175Z,7.18
2022-10-02T10:11:02.154Z,4.32
2022-10-02T10:13:55.846Z,27.02
2022-10-02T10:16:28.381Z,6.25
2022-10-02T10:19:13.731Z,7.13
2022-10-02T10:22:26.736Z,5.25
2022-10-02T10:25:28.244Z,7.45
2022-10-02T10:28:09.910Z,7.78
2022-10-02T10:31:23.649Z,5.75
2022-10-02T10:34:23.996Z,6.60
2022-10-02T10:37:26.827Z,3.78
2022-10-02T10:39:59.445Z,7.05
2022-10-02T10:43:08.067Z,7.82
2022-10-02T10:48:30.366Z,5.78
2022-10-02T10:51:19.579Z,5.95
2022-10-02T10:56:36.905Z,4.60
2022-10-02T10:59:45.648Z,2.90
2022-10-02T11:02:40.477Z,4.68
2022-10-02T11:05:34.604Z,4.60
2022-10-02T11:08:50.594Z,6.20
2022-10-02T11:11:31.846Z,3.13
2022-10-02T11:14:29.617Z,3.75
2022-10-02T11:17:39.714Z,10.07
2022-10-02T11:20:31.570Z,7.63
2022-10-02T11:23:15.954Z,3.83
2022-10-02T11:26:14.975Z,4.25
2022-10-02T11:29:21.134Z,2.00
2022-10-02T11:32:16.891Z,4.00
2022-10-02T11:35:19.391Z,4.95
2022-10-02T11:38:31.212Z,4.55
2022-10-02T11:41:12.112Z,12.27
2022-10-02T11:43:58.275Z,7.80
2022-10-02T11:46:53.035Z,6.88
2022-10-02T11:50:01.073Z,9.90
2022-10-02T11:53:04.104Z,7.85
2022-10-02T11:56:00.816Z,3.60
2022-10-02T11:58:45.296Z,3.50
2022-10-02T12:01:36.688Z,3.28
2022-10-02T12:04:22.198Z,3.90
2022-10-02T12:07:29.901Z,2.45
2022-10-02T12:10:21.097Z,3.50
2022-10-02T12:13:29.021Z,2.40
2022-10-02T12:16:12.348Z,3.35
2022-10-02T12:19:00.533Z,3.85
2022-10-02T12:21:55.003Z,3.70
2022-10-02T12:25:01.713Z,2.78
2022-10-02T12:27:45.312Z,3.28
2022-10-02T12:30:27.215Z,5.47
2022-10-02T12:33:15.444Z,3.28
2022-10-02T12:35:50.877Z,2.93
2022-10-02T12:38:52.338Z,3.80
2022-10-02T12:41:55.701Z,5.55
2022-10-02T12:44:43.662Z,4.53
2022-10-02T12:47:40.250Z,3.13
2022-10-02T12:50:54.918Z,2.75
2022-10-02T12:53:53.084Z,3.90
2022-10-02T12:56:38.747Z,1.98
2022-10-02T12:59:28.624Z,3.80
2022-10-02T13:02:06.460Z,3.05
2022-10-02T13:04:57.936Z,4.07
2022-10-02T13:08:01.691Z,2.83
2022-10-02T13:11:00.912Z,4.00
2022-10-02T13:16:25.762Z,3.15
2022-10-02T13:19:00.950Z,2.90
2022-10-02T13:21:40.291Z,2.70
2022-10-02T13:24:26.108Z,3.15
2022-10-02T13:27:18.467Z,2.63
2022-10-02T13:29:51.803Z,4.22
2022-10-02T13:32:18.228Z,4.00
2022-10-02T13:35:05.747Z,2.75
2022-10-02T13:37:38.412Z,3.67
2022-10-02T13:40:21.814Z,2.83
2022-10-02T13:43:20.170Z,2.70
2022-10-02T13:46:02.485Z,2.28
2022-10-02T13:48:48.093Z,4.85
2022-10-02T13:51:21.926Z,3.38
2022-10-02T13:54:30.286Z,2.55
2022-10-02T13:57:29.209Z,2.90
2022-10-02T14:00:08.034Z,4.05
2022-10-02T14:03:17.436Z,2.92
2022-10-02T14:05:55.676Z,4.07
2022-10-02T14:08:46.458Z,2.70
2022-10-02T14:11:50.299Z,2.20
2022-10-02T14:14:29.016Z,4.68
2022-10-02T14:17:13.057Z,2.25
2022-10-02T14:20:04.823Z,8.65
2022-10-02T14:22:37.353Z,2.97
2022-10-02T14:25:44.446Z,5.15
2022-10-02T14:28:39.138Z,2.45
2022-10-02T14:31:09.726Z,2.00
2022-10-02T14:33:45.617Z,3.78
2022-10-02T14:36:19.160Z,3.55
2022-10-02T14:39:01.185Z,5.38
2022-10-02T14:41:58.983Z,6.05
2022-10-02T14:44:32.027Z,4.45
2022-10-02T14:47:29.521Z,2.33
2022-10-02T14:50:01.882Z,3.35
2022-10-02T14:52:51.307Z,4.90
2022-10-02T14:55:42.867Z,2.83
2022-10-02T14:58:15.301Z,3.20
2022-10-02T15:00:53.787Z,4.00
2022-10-02T15:03:36.375Z,4.05
2022-10-02T15:06:21.654Z,2.85
2022-10-02T15:09:06.272Z,1.77
2022-10-02T15:11:36.112Z,4.32
2022-10-02T15:14:17.312Z,2.47
2022-10-02T15:17:13.272Z,5.05
2022-10-02T15:19:50.153Z,4.43
2022-10-02T15:22:31.544Z,3.35
2022-10-02T15:25:06.892Z,2.97
2022-10-02T15:27:52.050Z,5.60
2022-10-02T15:30:21.792Z,4.57
2022-10-02T15:33:13.299Z,9.35
2022-10-02T15:35:52.008Z,3.85
2022-10-02T15:38:33.380Z,4.57
2022-10-02T15:41:11.816Z,4.25
2022-10-02T15:44:06.650Z,3.65
2022-10-02T15:47:14.274Z,6.78
2022-10-02T15:50:01.892Z,4.47
2022-10-02T15:52:59.549Z,4.43
2022-10-02T15:55:35.137Z,5.72
2022-10-02T15:58:18.295Z,5.70
2022-10-02T16:01:11.116Z,12.07
2022-10-02T16:03:50.786Z,3.25
2022-10-02T16:06:53.430Z,4.25
2022-10-02T16:09:52.470Z,4.43
2022-10-02T16:12:43.892Z,16.60
2022-10-02T16:15:17.875Z,8.60
2022-10-02T16:18:02.573Z,5.28
2022-10-02T16:20:37.657Z,5.43
2022-10-02T16:23:38.322Z,6.10
2022-10-02T16:26:28.970Z,5.75
2022-10-02T16:29:03.999Z,5.88
2022-10-02T16:32:01.886Z,8.82
2022-10-02T16:34:28.352Z,6.82
2022-10-02T16:37:04.744Z,9.48
2022-10-02T16:39:39.616Z,9.75
2022-10-02T16:42:34.377Z,9.02
2022-10-02T16:45:19.242Z,8.02
2022-10-02T16:47:51.877Z,11.93
2022-10-02T16:50:28.665Z,9.27
2022-10-02T16:53:04.095Z,8.70
2022-10-02T16:55:41.964Z,8.98
2022-10-02T16:58:30.993Z,6.10
2022-10-02T17:01:07.093Z,8.02
2022-10-02T17:03:47.140Z,5.57
2022-10-02T17:06:32.970Z,8.85
2022-10-02T17:09:14.574Z,7.53
2022-10-02T17:12:29.224Z,15.07
2022-10-02T17:15:34.360Z,11.15
2022-10-02T17:18:13.296Z,6.20
2022-10-02T17:20:46.230Z,8.13
2022-10-02T17:23:36.916Z,9.05
2022-10-02T17:26:10.860Z,8.70
2022-10-02T17:28:57.290Z,9.65
2022-10-02T17:31:38.614Z,12.73
2022-10-02T17:34:21.941Z,8.95
2022-10-02T17:37:09.531Z,11.05
2022-10-02T17:40:02.576Z,8.07
2022-10-02T17:42:53.863Z,7.15
2022-10-02T17:45:52.365Z,7.93
2022-10-02T17:48:27.030Z,12.68
2022-10-02T17:50:56.325Z,9.93
2022-10-02T17:56:29.446Z,13.23
2022-10-02T17:59:10.382Z,11.65
2022-10-02T18:01:45.746Z,10.95
2022-10-02T18:04:15.300Z,13.65
2022-10-02T18:06:44.925Z,48.33
2022-10-02T18:09:29.896Z,12.50
2022-10-02T18:12:18.364Z,14.63
2022-10-02T18:15:06.936Z,17.02
2022-10-02T18:17:45.337Z,15.20
2022-10-02T18:20:34.181Z,12.20
2022-10-02T18:23:25.555Z,18.02
2022-10-02T18:26:18.065Z,14.55
2022-10-02T18:28:51.495Z,11.13
2022-10-02T18:31:51.059Z,15.27
2022-10-02T18:34:43.545Z,11.02
2022-10-02T18:37:43.704Z,13.05
2022-10-02T18:40:31.744Z,11.02
2022-10-02T18:43:12.347Z,12.02
2022-10-02T18:45:55.842Z,12.05
2022-10-02T18:48:51.693Z,10.20
2022-10-02T18:51:45.442Z,9.85
2022-10-02T18:54:17.848Z,9.95
2022-10-02T18:57:19.503Z,10.10
2022-10-02T19:00:18.201Z,11.38
2022-10-02T19:03:21.817Z,9.82
2022-10-02T19:05:57.998Z,15.77
2022-10-02T19:08:50.771Z,10.45
2022-10-02T19:11:19.044Z,20.25
2022-10-02T19:13:48.827Z,13.52
2022-10-02T19:16:25.964Z,10.77
2022-10-02T19:19:21.328Z,11.20
2022-10-02T19:21:48.404Z,11.70
2022-10-02T19:24:18.957Z,20.60
2022-10-02T19:26:51.412Z,14.63
2022-10-02T19:29:37.450Z,11.95
2022-10-02T19:32:18.906Z,17.23
2022-10-02T19:34:55.149Z,9.18
2022-10-02T19:37:23.232Z,15.98
2022-10-02T19:39:55.898Z,17.90
2022-10-02T19:42:37.239Z,12.45
2022-10-02T19:45:07.921Z,14.05
2022-10-02T19:47:49.105Z,13.65
2022-10-02T19:50:44.251Z,12.20
2022-10-02T19:53:21.601Z,12.63
2022-10-02T19:55:59.370Z,9.68
2022-10-02T19:58:40.304Z,14.02
2022-10-02T20:01:15.802Z,10.10
2022-10-02T20:03:43.629Z,9.35
2022-10-02T20:06:21.011Z,11.40
2022-10-02T20:08:57.714Z,12.80
2022-10-02T20:11:37.741Z,17.08
2022-10-02T20:14:13.245Z,11.13
2022-10-02T20:16:58.522Z,11.88
2022-10-02T20:19:30.044Z,15.93
2022-10-02T20:22:00.061Z,11.25
2022-10-02T20:24:38.784Z,12.40
2022-10-02T20:27:17.249Z,10.07
2022-10-02T20:29:52.596Z,17.38
2022-10-02T20:32:34.541Z,21.38
2022-10-02T20:35:14.811Z,9.57
2022-10-02T20:37:43.054Z,13.35
2022-10-02T20:40:20.261Z,13.38
2022-10-02T20:43:05.329Z,12.75
2022-10-02T20:45:43.981Z,14.77
2022-10-02T20:49:06.946Z,13.77
2022-10-02T20:52:08.742Z,10.95
2022-10-02T20:54:45.587Z,13.18
2022-10-02T20:58:05.979Z,15.43
2022-10-02T21:00:54.273Z,16.88
2022-10-02T21:03:26.718Z,17.57
2022-10-02T21:06:39.666Z,18.33
2022-10-02T21:09:27.378Z,14.85
2022-10-02T21:12:28.868Z,17.17
2022-10-02T21:15:10.015Z,15.32
2022-10-02T21:18:00.760Z,18.13
2022-10-02T21:20:52.022Z,15.63
2022-10-02T21:23:44.543Z,15.77
2022-10-02T21:26:26.892Z,18.98
2022-10-02T21:29:15.341Z,15.13
2022-10-02T21:32:02.662Z,18.08
2022-10-02T21:34:35.403Z,15.70
2022-10-02T21:37:17.551Z,18.48
2022-10-02T21:40:19.026Z,15.98
2022-10-02T21:43:04.083Z,13.75
2022-10-02T21:46:08.144Z,27.10
2022-10-02T21:49:24.045Z,18.90
2022-10-02T21:51:56.460Z,12.95
2022-10-02T21:54:58.084Z,16.85
2022-10-02T21:57:49.295Z,17.42
2022-10-02T22:00:25.680Z,17.23
2022-10-02T22:03:13.900Z,18.52
2022-10-02T22:06:08.720Z,15.73
2022-10-02T22:08:50.418Z,19.13
2022-10-02T22:11:24.720Z,20.85
2022-10-02T22:14:04.446Z,16.48
2022-10-02T22:16:39.026Z,16.88
2022-10-02T22:19:20.789Z,24.50
2022-10-02T22:22:02.467Z,22.15
2022-10-02T22:24:46.651Z,18.15
2022-10-02T22:27:45.415Z,23.20
2022-10-02T22:30:56.072Z,21.20
2022-10-02T22:33:55.824Z,21.83
2022-10-02T22:36:50.006Z,19.67
2022-10-02T22:39:40.836Z,17.65
2022-10-02T22:42:31.706Z,23.00
2022-10-02T22:45:24.657Z,11.57
2022-10-02T22:48:07.058Z,16.92
2022-10-02T22:50:44.433Z,15.15
2022-10-02T22:53:24.185Z,13.13
2022-10-02T22:55:53.844Z,19.10
2022-10-02T22:58:36.904Z,15.98
2022-10-02T23:01:27.891Z,12.07
2022-10-02T23:03:57.449Z,15.60
2022-10-02T23:06:30.751Z,11.57
2022-10-02T23:09:20.734Z,16.38
2022-10-02T23:14:40.881Z,11.77
2022-10-02T23:17:18.225Z,14.85
2022-10-02T23:19:55.576Z,16.45
2022-10-02T23:22:43.700Z,19.95
2022-10-02T23:25:24.251Z,20.88
2022-10-02T23:28:08.659Z,18.45
2022-10-02T23:30:47.924Z,20.75
2022-10-02T23:36:22.265Z,13.88
2022-10-02T23:39:15.068Z,16.02
2022-10-02T23:41:52.054Z,13.88
2022-10-02T23:44:43.626Z,19.35
2022-10-02T23:47:34.599Z,16.45
2022-10-02T23:50:01.620Z,19.33
2022-10-02T23:52:59.045Z,20.70
2022-10-02T23:55:59.280Z,18.25
2022-10-02T23:59:03.203Z,17.63
